^^
Datos históricos de la estación: Murcia-Puente Tocinos
Diario Informe para Septiembre 25, 2019 Unidades:  Ingés    Métrico   Ambas
Diario Semanal Mensual Anual
  Máxima: Mínima: Promedio:
Temperatura: 74.1 °F 60.1 °F 66 °F
Punto de rocio: 55.6 °F 47.5 °F 51.3 °F
Humedad: 74.9% 44.9% 59%
Velocidad viento: 10mph 0mph 5mph
Racha viento: 19mph - -
Viento- - SSE
Presión: 30 in 29.9 in -
Precipitación: 0 in    
 
 
Tabla de datos para Septiembre 25, 2019
Hora Temperatura Punto de rocio Presión Viento Velocidad viento Racha viento Humedad Intensidad lluvia(por hora) Nubes
00:04 61.5 °F 52.3 °F 30 in SO 4.3 mph 9.2 mph 72% 0 in
00:09 61.5 °F 52.3 °F 30 in SO 4.7 mph 9.7 mph 71.9% 0 in
00:14 61.5 °F 52.3 °F 30 in OSO 5.4 mph 10 mph 72% 0 in
00:19 61.3 °F 52.2 °F 30 in OSO 5.2 mph 9.2 mph 72% 0 in
00:24 61.3 °F 52.5 °F 30 in SO 4.7 mph 9 mph 72.9% 0 in
00:29 61.2 °F 52.7 °F 30 in SO 4.7 mph 8.1 mph 73.6% 0 in
00:34 61.2 °F 52.7 °F 30 in SO 4.7 mph 8 mph 74% 0 in
00:39 61 °F 52.7 °F 30 in SO 4.5 mph 8.1 mph 74.1% 0 in
00:44 61.2 °F 53.1 °F 30 in SSO 4.3 mph 8 mph 74.9% 0 in
00:49 61.2 °F 53.1 °F 30 in SSO 4 mph 7.4 mph 74.5% 0 in
00:54 61.2 °F 52.9 °F 30 in SSO 3.6 mph 7 mph 74% 0 in
00:59 61.2 °F 52.7 °F 30 in SSO 4 mph 9.2 mph 74% 0 in
01:04 61 °F 52.5 °F 30 in SSO 4.7 mph 10.4 mph 74% 0 in
01:09 60.8 °F 52.5 °F 30 in SSO 5.3 mph 10 mph 74.4% 0 in
01:14 60.6 °F 52.3 °F 30 in SSO 6.2 mph 10.4 mph 74% 0 in
01:19 60.6 °F 52.3 °F 30 in SSO 5.9 mph 10 mph 74% 0 in
01:24 60.6 °F 52.2 °F 30 in SO 5.4 mph 8.1 mph 73.9% 0 in
01:29 60.6 °F 52 °F 30 in SO 5 mph 8 mph 73.3% 0 in
01:34 60.6 °F 52 °F 30 in SSO 4.3 mph 7 mph 73% 0 in
01:39 60.6 °F 52 °F 30 in SO 4 mph 7 mph 73% 0 in
01:44 60.8 °F 52.2 °F 30 in SO 3.6 mph 7 mph 73% 0 in
01:49 60.8 °F 52.2 °F 30 in SSO 3.7 mph 6.9 mph 73% 0 in
01:54 60.8 °F 51.8 °F 29.9 in SSO 4 mph 10.4 mph 72.1% 0 in
01:59 60.8 °F 51.6 °F 29.9 in SSO 4.5 mph 10 mph 71.8% 0 in
02:04 60.8 °F 51.1 °F 29.9 in SSO 5.2 mph 11.5 mph 70.3% 0 in
02:09 60.8 °F 51.3 °F 29.9 in Sur 5.6 mph 12 mph 70.9% 0 in
02:14 60.8 °F 51.6 °F 29.9 in Sur 6.2 mph 9.7 mph 71.9% 0 in
02:19 60.6 °F 51.4 °F 29.9 in SSO 6.1 mph 10 mph 71.9% 0 in
02:24 60.6 °F 51.3 °F 29.9 in SSO 5.9 mph 10 mph 71% 0 in
02:29 60.6 °F 51.1 °F 29.9 in SSO 5.2 mph 9.2 mph 70.8% 0 in
02:34 61 °F 50.9 °F 29.9 in SO 4 mph 9.2 mph 69.8% 0 in
02:39 61 °F 50.7 °F 29.9 in SO 4.1 mph 8 mph 69% 0 in
02:44 61.2 °F 50.9 °F 29.9 in SO 4.3 mph 9.2 mph 69% 0 in
02:49 61 °F 50.4 °F 29.9 in SSO 4.7 mph 9 mph 68.1% 0 in
02:54 61 °F 50.4 °F 29.9 in SSO 5.2 mph 9.7 mph 68% 0 in
02:59 60.8 °F 50.2 °F 29.9 in SSO 5.5 mph 10 mph 68% 0 in
03:04 60.8 °F 50.2 °F 29.9 in SSO 5.9 mph 9.2 mph 67.8% 0 in
03:09 60.8 °F 49.8 °F 29.9 in SO 5.7 mph 9 mph 67.1% 0 in
03:14 61 °F 49.8 °F 29.9 in SSO 5.4 mph 8.7 mph 67% 0 in
03:19 61 °F 49.8 °F 29.9 in SO 5.2 mph 9.2 mph 66.7% 0 in
03:24 61.2 °F 49.6 °F 29.9 in SO 4.7 mph 9 mph 66% 0 in
03:29 61.2 °F 49.6 °F 29.9 in OSO 4.7 mph 8 mph 66% 0 in
03:34 61.2 °F 49.6 °F 29.9 in SO 4.7 mph 8.5 mph 66% 0 in
03:39 61.2 °F 49.6 °F 29.9 in SO 4.5 mph 9 mph 66% 0 in
03:44 61 °F 49.5 °F 29.9 in SO 4.3 mph 7 mph 66% 0 in
03:49 61 °F 49.5 °F 29.9 in SSO 4 mph 6 mph 66% 0 in
03:54 61 °F 49.5 °F 29.9 in Sur 3.6 mph 10.7 mph 66% 0 in
03:59 61 °F 49.5 °F 29.9 in SSO 4.2 mph 11 mph 66% 0 in
04:04 60.8 °F 49.5 °F 29.9 in SSO 5.2 mph 10 mph 66% 0 in
04:09 60.8 °F 49.3 °F 29.9 in SSO 5 mph 8 mph 66.1% 0 in
04:14 60.6 °F 49.3 °F 29.9 in SSO 4.7 mph 8.1 mph 66.1% 0 in
04:19 60.6 °F 49.3 °F 29.9 in SSO 4.3 mph 8 mph 66% 0 in
04:24 60.6 °F 48.9 °F 29.9 in SSO 3.6 mph 9.2 mph 65.3% 0 in
04:29 60.6 °F 48.7 °F 29.9 in SO 4 mph 9 mph 65% 0 in
04:34 60.6 °F 48.7 °F 29.9 in SSO 4.7 mph 8 mph 65% 0 in
04:39 60.6 °F 48.6 °F 29.9 in SO 4.4 mph 7 mph 64.5% 0 in
04:44 60.6 °F 48.4 °F 29.9 in SSO 4 mph 6.9 mph 64% 0 in
04:49 60.6 °F 48.6 °F 29.9 in SSO 4 mph 7 mph 64.3% 0 in
04:54 60.8 °F 48.4 °F 29.9 in SO 4 mph 6.9 mph 64% 0 in
04:59 60.8 °F 48.6 °F 29.9 in SO 4 mph 7 mph 64% 0 in
05:04 60.8 °F 48.4 °F 29.9 in SO 4 mph 6 mph 63.8% 0 in
05:09 60.8 °F 48.2 °F 29.9 in SO 3.6 mph 6 mph 63.3% 0 in
05:14 60.8 °F 48 °F 29.9 in SO 2.9 mph 6 mph 63% 0 in
05:19 60.6 °F 48.2 °F 29.9 in SO 2.5 mph 5 mph 63.5% 0 in
05:24 60.6 °F 48.9 °F 29.9 in SO 1.8 mph 3 mph 65.1% 0 in
05:29 60.6 °F 48.6 °F 29.9 in SO 1.1 mph 5.2 mph 64.4% 0 in
05:34 60.6 °F 47.8 °F 29.9 in Calm   5.9 mph 63% 0 in
05:39 60.6 °F 47.8 °F 29.9 in SO 1.1 mph 6 mph 63% 0 in
05:44 60.6 °F 47.8 °F 29.9 in SO 3.1 mph 5.9 mph 63% 0 in
05:49 60.6 °F 47.8 °F 29.9 in SO 3.3 mph 6 mph 63% 0 in
05:54 60.4 °F 47.8 °F 29.9 in SO 3.6 mph 6 mph 63% 0 in
05:59 60.4 °F 47.8 °F 29.9 in SO 3.3 mph 5.2 mph 63% 0 in
06:04 60.4 °F 47.8 °F 29.9 in SO 2.9 mph 5.4 mph 63% 0 in
06:09 60.4 °F 47.8 °F 29.9 in SSO 3.2 mph 6 mph 63% 0 in
06:14 60.3 °F 47.7 °F 29.9 in SSO 3.6 mph 5.8 mph 63% 0 in
06:19 60.4 °F 47.8 °F 29.9 in SSO 3.6 mph 6.2 mph 63% 0 in
06:24 60.3 °F 47.7 °F 29.9 in SSO 3.6 mph 8.1 mph 63% 0 in
06:29 60.3 °F 47.7 °F 29.9 in SSO 4 mph 8.5 mph 63% 0 in
06:34 60.1 °F 47.5 °F 29.9 in SO 4.7 mph 9.2 mph 62.9% 0 in
06:39 60.1 °F 47.5 °F 29.9 in SO 4.9 mph 9 mph 63% 0 in
06:44 60.1 °F 47.5 °F 29.9 in SSO 5.2 mph 6 mph 63% 0 in
06:49 60.1 °F 47.7 °F 29.9 in SSO 4.6 mph 6 mph 63.4% 0 in
06:54 60.1 °F 47.7 °F 29.9 in Sur 3.6 mph 6 mph 63.6% 0 in
06:59 60.1 °F 47.8 °F 29.9 in Sur 3.7 mph 8.5 mph 64% 0 in
07:04 60.1 °F 47.8 °F 29.9 in Sur 4 mph 9 mph 64% 0 in
07:09 60.1 °F 47.8 °F 29.9 in SSO 4.1 mph 8.5 mph 64% 0 in
07:14 60.1 °F 47.8 °F 29.9 in SSO 4.3 mph 9 mph 64% 0 in
07:19 60.1 °F 48 °F 29.9 in Sur 4.2 mph 7 mph 64.3% 0 in
07:24 60.1 °F 48.2 °F 29.9 in Sur 4 mph 9.7 mph 64.6% 0 in
07:29 60.1 °F 48.4 °F 29.9 in SSO 4.7 mph 10 mph 65% 0 in
07:34 60.1 °F 48.2 °F 29.9 in SSO 5.9 mph 10 mph 64.8% 0 in
07:39 60.1 °F 48 °F 29.9 in SSO 5.7 mph 9 mph 64.1% 0 in
07:44 60.3 °F 48 °F 29.9 in SSO 5.4 mph 8 mph 64% 0 in
07:49 60.3 °F 48 °F 29.9 in SSO 5.2 mph 8.5 mph 64% 0 in
07:54 60.4 °F 48 °F 29.9 in SO 4.7 mph 9 mph 64% 0 in
07:59 60.4 °F 48 °F 29.9 in SO 4.3 mph 7 mph 63.6% 0 in
08:04 60.4 °F 47.8 °F 29.9 in SO 3.6 mph 6.9 mph 63% 0 in
08:09 60.6 °F 47.8 °F 29.9 in Sur 3.7 mph 7 mph 63% 0 in
08:14 60.6 °F 48 °F 29.9 in SSO 4 mph 6.2 mph 63% 0 in
08:19 61 °F 48 °F 29.9 in SSO 3.6 mph 8.1 mph 62.4% 0 in
08:24 61 °F 47.8 °F 29.9 in SSO 2.9 mph 8.5 mph 62% 0 in
08:29 61 °F 47.8 °F 29.9 in SSO 4 mph 9.2 mph 62% 0 in
08:34 61 °F 48 °F 29.9 in SSO 5.9 mph 9.2 mph 62.3% 0 in
08:39 61 °F 48.2 °F 29.9 in SSO 6 mph 9.2 mph 62.8% 0 in
08:44 61 °F 48 °F 29.9 in SSO 6.2 mph 9 mph 62.3% 0 in
08:49 61.2 °F 48.2 °F 29.9 in Sur 6.1 mph 11.5 mph 62.2% 0 in
08:54 61.3 °F 48.4 °F 29.9 in Sur 5.9 mph 12 mph 62.2% 0 in
08:59 61.5 °F 48.4 °F 29.9 in SSO 6.1 mph 10 mph 62% 0 in
09:04 61.7 °F 48.9 °F 29.9 in SO 6.4 mph 10 mph 62.8% 0 in
09:09 62.1 °F 49.1 °F 29.9 in SSO 6.2 mph 9.2 mph 62.7% 0 in
09:14 62.2 °F 49.1 °F 29.9 in SSO 5.9 mph 9.2 mph 62.1% 0 in
09:19 62.4 °F 49.1 °F 30 in SO 5.7 mph 9 mph 62% 0 in
09:24 62.6 °F 49.5 °F 30 in SSO 5.2 mph 7.6 mph 61.9% 0 in
09:29 63 °F 49.3 °F 30 in SSO 5 mph 8.5 mph 61.1% 0 in
09:34 63 °F 49.6 °F 30 in OSO 4.7 mph 9 mph 61.6% 0 in
09:39 63.3 °F 49.6 °F 30 in SO 4.5 mph 7 mph 61% 0 in
09:44 63.9 °F 50 °F 30 in OSO 4 mph 7 mph 60.7% 0 in
09:49 64.4 °F 50.2 °F 30 in OSO 3.9 mph 7.6 mph 59.9% 0 in
09:54 64.8 °F 50.4 °F 30 in SO 3.6 mph 9.2 mph 59.4% 0 in
09:59 64.9 °F 50.4 °F 30 in Oeste 4.2 mph 9.2 mph 59.1% 0 in
10:04 64.9 °F 50.7 °F 30 in Oeste 5.2 mph 10.2 mph 59.6% 0 in
10:09 65.1 °F 50.4 °F 30 in Oeste 4.8 mph 10.4 mph 59% 0 in
10:14 65.1 °F 50.5 °F 30 in Oeste 4.3 mph 10.2 mph 59.1% 0 in
10:19 65.3 °F 50.7 °F 30 in Oeste 4.9 mph 11.5 mph 59% 0 in
10:24 65.3 °F 50.7 °F 30 in Oeste 5.9 mph 12 mph 59% 0 in
10:29 65.1 °F 50.5 °F 30 in OSO 5.9 mph 12 mph 59% 0 in
10:34 65.3 °F 50.5 °F 30 in Oeste 5.9 mph 10 mph 58.8% 0 in
10:39 65.7 °F 50.9 °F 30 in Oeste 5.3 mph 8.1 mph 59% 0 in
10:44 65.8 °F 50.7 °F 30 in ONO 4.3 mph 8.1 mph 58.1% 0 in
10:49 66 °F 50.7 °F 30 in Oeste 4.3 mph 8 mph 57.9% 0 in
10:54 66.4 °F 50.9 °F 30 in ONO 4.3 mph 10 mph 57.6% 0 in
10:59 66.4 °F 50.7 °F 30 in ONO 4.7 mph 11.5 mph 56.9% 0 in
11:04 66.6 °F 50.7 °F 30 in ONO 5.2 mph 12 mph 56.8% 0 in
11:09 66.6 °F 50.7 °F 30 in Oeste 5.3 mph 9.2 mph 57% 0 in
11:14 66.7 °F 50.9 °F 30 in ONO 5.4 mph 10.7 mph 56.8% 0 in
11:19 66.7 °F 50.4 °F 30 in ONO 5.4 mph 11 mph 55.7% 0 in
11:24 66.7 °F 50.5 °F 30 in ONO 5.4 mph 10 mph 56% 0 in
11:29 66.6 °F 50.4 °F 30 in ONO 5.6 mph 9.2 mph 56% 0 in
11:34 66.7 °F 50.5 °F 30 in ONO 5.9 mph 9.2 mph 56.2% 0 in
11:39 66.7 °F 50.5 °F 30 in Oeste 5.5 mph 9 mph 56% 0 in
11:44 66.7 °F 50.5 °F 30 in ONO 4.7 mph 9 mph 56% 0 in
11:49 66.9 °F 50.7 °F 30 in ONO 4.7 mph 9 mph 56% 0 in
11:54 67.1 °F 50.9 °F 30 in ONO 4.7 mph 8.5 mph 56% 0 in
11:59 67.5 °F 51.3 °F 30 in OSO 4.4 mph 9 mph 56% 0 in
12:04 68 °F 51.6 °F 30 in Sur 4 mph 7.6 mph 55.6% 0 in
12:09 68.9 °F 51.6 °F 30 in NO 3.7 mph 8.1 mph 54.1% 0 in
12:14 69.4 °F 51.3 °F 30 in ONO 3.1 mph 8.1 mph 52.3% 0 in
12:19 69.3 °F 51.4 °F 30 in Oeste 3.7 mph 8.1 mph 52.9% 0 in
12:24 69.3 °F 51.3 °F 30 in ONO 4.7 mph 8 mph 52.8% 0 in
12:29 69.3 °F 51.6 °F 30 in NO 4.1 mph 7 mph 53.4% 0 in
12:34 69.4 °F 51.4 °F 30 in Oeste 3.1 mph 7 mph 52.8% 0 in
12:39 69.4 °F 51.6 °F 30 in OSO 3.3 mph 7 mph 53% 0 in
12:44 69.8 °F 51.6 °F 30 in SO 3.6 mph 6.9 mph 52.6% 0 in
12:49 70.3 °F 51.8 °F 30 in ESE 3.4 mph 7 mph 51.9% 0 in
12:54 70.9 °F 51.6 °F 30 in North 2.9 mph 11.2 mph 50.6% 0 in
12:59 70.3 °F 51.4 °F 30 in NE 3.9 mph 12 mph 51% 0 in
13:04 70.3 °F 51.6 °F 30 in NE 5.4 mph 9.7 mph 51.6% 0 in
13:09 70.7 °F 51.6 °F 30 in NNE 5.6 mph 12.7 mph 50.9% 0 in
13:14 70.9 °F 51.4 °F 30 in North 5.9 mph 13 mph 50.2% 0 in
13:19 70.9 °F 51.3 °F 30 in North 5.3 mph 11.2 mph 50% 0 in
13:24 70.5 °F 51.1 °F 30 in NNE 4.3 mph 12 mph 50% 0 in
13:29 70.5 °F 51.4 °F 30 in North 4.7 mph 10 mph 50.7% 0 in
13:34 70.5 °F 51.6 °F 30 in North 5.2 mph 9.2 mph 51.1% 0 in
13:39 70.5 °F 51.6 °F 30 in North 5 mph 9.2 mph 51.1% 0 in
13:44 70.7 °F 51.6 °F 30 in NNE 4.7 mph 11.4 mph 51% 0 in
13:49 70.5 °F 51.4 °F 30 in NNE 5.1 mph 12 mph 50.7% 0 in
13:54 70.3 °F 51.3 °F 30 in NNE 5.9 mph 12 mph 51% 0 in
13:59 70.3 °F 51.3 °F 30 in NE 6 mph 12 mph 51% 0 in
14:04 70.3 °F 51.3 °F 30 in NNE 6.2 mph 12.7 mph 51% 0 in
14:09 70.5 °F 51.3 °F 30 in North 6.1 mph 13 mph 50.3% 0 in
14:14 70.5 °F 50.5 °F 30 in NE 5.9 mph 11 mph 49.3% 0 in
14:19 70.5 °F 50.7 °F 30 in NE 6 mph 10 mph 49.7% 0 in
14:24 70.7 °F 50.9 °F 30 in NNE 6.2 mph 8.5 mph 49.3% 0 in
14:29 71.1 °F 50.7 °F 30 in NE 5.9 mph 11.8 mph 48.6% 0 in
14:34 71.2 °F 50.5 °F 30 in NE 5.4 mph 12 mph 48% 0 in
14:39 71.2 °F 50.5 °F 30 in NE 5.3 mph 12.7 mph 48.1% 0 in
14:44 71.2 °F 50.7 °F 30 in NE 5.2 mph 13.8 mph 48.3% 0 in
14:49 71.2 °F 51.1 °F 30 in NE 5.8 mph 14 mph 48.9% 0 in
14:54 71.4 °F 51.4 °F 30 in ENE 6.9 mph 12.7 mph 49.3% 0 in
14:59 71.6 °F 51.6 °F 30 in ENE 6.7 mph 13 mph 49.3% 0 in
15:04 72 °F 51.4 °F 30 in NE 6.4 mph 16.3 mph 48.3% 0 in
15:09 72 °F 51.6 °F 30 in ENE 7.2 mph 16.1 mph 48.7% 0 in
15:14 72 °F 51.8 °F 30 in ENE 8.5 mph 17.3 mph 49.1% 0 in
15:19 71.8 °F 52 °F 30 in NE 8.3 mph 17 mph 49.8% 0 in
15:24 71.8 °F 52 °F 30 in NE 8.1 mph 15 mph 49.9% 0 in
15:29 71.4 °F 51.8 °F 30 in NE 8.3 mph 19 mph 49.8% 0 in
15:34 71.6 °F 51.6 °F 30 in NE 8.7 mph 19 mph 49.6% 0 in
15:39 71.4 °F 51.1 °F 30 in NE 8.7 mph 18.5 mph 48.6% 0 in
15:44 71.4 °F 51.6 °F 30 in NE 8.7 mph 19 mph 49.4% 0 in
15:49 71.8 °F 51.8 °F 30 in NE 9.2 mph 16.1 mph 49.4% 0 in
15:54 71.6 °F 51.4 °F 30 in NE 10 mph 15.2 mph 49% 0 in
15:59 71.4 °F 51.4 °F 30 in NE 9.5 mph 15 mph 49.2% 0 in
16:04 71.6 °F 51.4 °F 30 in ENE 8.7 mph 13 mph 49% 0 in
16:09 71.4 °F 51.3 °F 30 in NE 8.3 mph 15 mph 49% 0 in
16:14 71.2 °F 51.1 °F 30 in NE 7.6 mph 15 mph 49.2% 0 in
16:19 71.2 °F 51.3 °F 30 in NE 8 mph 14 mph 49.5% 0 in
16:24 71.4 °F 51.3 °F 30 in NE 8.5 mph 13.8 mph 49% 0 in
16:29 71.2 °F 51.1 °F 30 in ENE 7.6 mph 14 mph 49% 0 in
16:34 71.6 °F 51.3 °F 30 in NE 6.2 mph 12.7 mph 48.8% 0 in
16:39 71.6 °F 51.3 °F 30 in NE 6.3 mph 13 mph 48.8% 0 in
16:44 71.4 °F 51.3 °F 30 in ENE 6.4 mph 13 mph 49% 0 in
16:49 71.4 °F 51.4 °F 30 in ENE 6.6 mph 12 mph 49.5% 0 in
16:54 71.2 °F 51.6 °F 30 in ENE 6.9 mph 11.8 mph 50% 0 in
16:59 71.2 °F 51.6 °F 30 in ENE 6.5 mph 13 mph 50% 0 in
17:04 71.1 °F 51.8 °F 30 in NE 5.9 mph 13 mph 50.5% 0 in
17:09 71.1 °F 52 °F 30 in NE 6 mph 13 mph 51% 0 in
17:14 71.1 °F 52.2 °F 30 in ENE 6.2 mph 12 mph 51% 0 in
17:19 71.4 °F 52.2 °F 30 in NE 6.2 mph 10.7 mph 50.7% 0 in
17:24 71.8 °F 52.2 °F 30 in NE 6.2 mph 11.5 mph 50.1% 0 in
17:29 71.8 °F 52 °F 30 in NE 6.2 mph 12 mph 49.7% 0 in
17:34 71.8 °F 52.2 °F 30 in NE 6.2 mph 12.3 mph 49.9% 0 in
17:39 72 °F 52 °F 30 in NE 5.9 mph 13 mph 49.7% 0 in
17:44 72.1 °F 52 °F 30 in Este 5.4 mph 12 mph 49% 0 in
17:49 72.7 °F 52.2 °F 30 in ENE 5.6 mph 10 mph 48.5% 0 in
17:54 73 °F 52 °F 30 in ENE 5.9 mph 9.7 mph 47.5% 0 in
17:59 73 °F 51.3 °F 30 in NE 5.7 mph 10 mph 46.3% 0 in
18:04 72.9 °F 51.3 °F 30 in NE 5.2 mph 9 mph 46.8% 0 in
18:09 73 °F 51.3 °F 30 in North 4.6 mph 8 mph 46.4% 0 in
18:14 73.4 °F 51.4 °F 30 in North 3.6 mph 9.7 mph 45.9% 0 in
18:19 73.8 °F 51.3 °F 30 in NNO 3.4 mph 10 mph 45.3% 0 in
18:24 74.1 °F 51.4 °F 30 in North 3.1 mph 10.4 mph 45% 0 in
18:29 74.1 °F 51.3 °F 30 in NE 3.5 mph 10 mph 44.9% 0 in
18:34 73.9 °F 51.3 °F 30 in NE 4.3 mph 9 mph 45% 0 in
18:39 73.8 °F 51.1 °F 29.9 in NNE 4.3 mph 9.7 mph 45.1% 0 in
18:44 73.8 °F 51.1 °F 29.9 in NNE 4.3 mph 10.7 mph 45.1% 0 in
18:49 73.8 °F 51.8 °F 29.9 in NE 4.7 mph 11 mph 46% 0 in
18:54 73.9 °F 52 °F 29.9 in Este 5.4 mph 9.7 mph 46.3% 0 in
18:59 73.9 °F 52.3 °F 29.9 in Este 4.8 mph 10 mph 47% 0 in
19:04 73.8 °F 51.8 °F 29.9 in NE 4 mph 9.2 mph 46.2% 0 in
19:09 73.4 °F 52.2 °F 29.9 in NE 4.1 mph 9 mph 47.5% 0 in
19:14 73.2 °F 52.5 °F 29.9 in Este 4.3 mph 11.4 mph 48.2% 0 in
19:19 73.2 °F 52.7 °F 30 in ENE 4.7 mph 12 mph 48.6% 0 in
19:24 73 °F 52.3 °F 30 in ENE 5.4 mph 10 mph 48% 0 in
19:29 73 °F 52.2 °F 30 in Este 5 mph 7 mph 48% 0 in
19:34 73 °F 52.3 °F 30 in Este 4.3 mph 7.4 mph 48.2% 0 in
19:39 73 °F 52.7 °F 30 in ENE 4.3 mph 11.5 mph 49% 0 in
19:44 73 °F 52.7 °F 30 in NE 4.3 mph 12 mph 49% 0 in
19:49 73 °F 52.9 °F 30 in ENE 4.7 mph 8.1 mph 49% 0 in
19:54 73.2 °F 52.9 °F 30 in NE 5.2 mph 9.2 mph 49% 0 in
19:59 73 °F 52.5 °F 30 in ENE 5 mph 9 mph 48.5% 0 in
20:04 73 °F 52.7 °F 30 in NE 4.7 mph 8.7 mph 49% 0 in
20:09 73 °F 52.7 °F 30 in ENE 5 mph 10.4 mph 48.8% 0 in
20:14 73 °F 52.7 °F 30 in ENE 5.4 mph 10 mph 48.9% 0 in
20:19 72.9 °F 52.3 °F 30 in ENE 5.2 mph 9.2 mph 48.4% 0 in
20:24 72.9 °F 52.7 °F 30 in NE 4.7 mph 9.2 mph 49.4% 0 in
20:29 72.7 °F 53.8 °F 30 in NE 5.2 mph 11.2 mph 51.6% 0 in
20:34 72.3 °F 54 °F 30 in NE 5.9 mph 12.7 mph 52.7% 0 in
20:39 71.6 °F 54 °F 30 in NE 6.5 mph 13 mph 53.8% 0 in
20:44 71.2 °F 54 °F 30 in NE 7.6 mph 15 mph 54.5% 0 in
20:49 71.1 °F 54 °F 30 in NE 7.5 mph 15 mph 55% 0 in
20:54 70.5 °F 54.1 °F 30 in NE 7.4 mph 13 mph 56% 0 in
20:59 70.2 °F 54.5 °F 30 in NE 7.6 mph 13 mph 57.4% 0 in
21:04 69.8 °F 54.5 °F 30 in NE 8.1 mph 13 mph 58.5% 0 in
21:09 69.4 °F 54.5 °F 30 in NE 8 mph 13 mph 59.3% 0 in
21:14 69.1 °F 54.7 °F 30 in NE 7.6 mph 12 mph 60% 0 in
21:19 68.7 °F 54.5 °F 30 in NE 6.8 mph 10.4 mph 60.7% 0 in
21:24 68.4 °F 54.7 °F 30 in NE 5.4 mph 10 mph 61.4% 0 in
21:29 68.4 °F 54.7 °F 30 in NE 5.2 mph 9.7 mph 62% 0 in
21:34 68 °F 54.5 °F 30 in NE 4.7 mph 10 mph 62% 0 in
21:39 67.8 °F 54.5 °F 30 in NE 4.9 mph 9 mph 62.5% 0 in
21:44 67.6 °F 54.5 °F 30 in ENE 5.2 mph 8.1 mph 63% 0 in
21:49 67.5 °F 54.9 °F 30 in NE 5 mph 8 mph 64% 0 in
21:54 67.1 °F 55 °F 30 in NE 4.7 mph 9.2 mph 65.1% 0 in
21:59 66.7 °F 55 °F 30 in NE 4.5 mph 9 mph 66% 0 in
22:04 66.6 °F 55 °F 30 in ENE 4.3 mph 8.5 mph 66.3% 0 in
22:09 66.6 °F 55.2 °F 30 in Este 4.2 mph 9 mph 67% 0 in
22:14 66.2 °F 55.2 °F 30 in Este 4 mph 7 mph 67.7% 0 in
22:19 66 °F 55.2 °F 30 in Este 4 mph 8.1 mph 68% 0 in
22:24 65.8 °F 55 °F 30 in ESE 4 mph 8.1 mph 68% 0 in
22:29 65.8 °F 55 °F 30 in Este 4.1 mph 8.1 mph 68% 0 in
22:34 65.8 °F 55 °F 30 in ESE 4.3 mph 8.7 mph 68% 0 in
22:39 65.8 °F 55.4 °F 30 in ESE 4.7 mph 9.2 mph 68.9% 0 in
22:44 65.8 °F 55.4 °F 30 in ESE 5.2 mph 8.1 mph 69% 0 in
22:49 65.8 °F 55.4 °F 30 in SE 4.8 mph 8 mph 69% 0 in
22:54 65.8 °F 55.4 °F 30 in SE 4.3 mph 7 mph 69% 0 in
22:59 65.8 °F 55.4 °F 30 in ESE 4.2 mph 8.5 mph 69% 0 in
23:04 65.7 °F 55.6 °F 30 in ESE 4 mph 9.2 mph 69.7% 0 in
23:09 65.5 °F 55.4 °F 30 in ESE 4.8 mph 9.2 mph 70% 0 in
23:14 65.5 °F 55.4 °F 30 in Este 6.2 mph 9.2 mph 70% 0 in
23:19 65.3 °F 55.6 °F 30 in Este 5.4 mph 7 mph 70.7% 0 in
23:24 65.1 °F 55.6 °F 30 in Este 4 mph 7 mph 71% 0 in
23:29 65.1 °F 55.6 °F 30 in Este 4 mph 8.1 mph 71% 0 in
23:34 65.1 °F 55.4 °F 30 in ESE 4 mph 9.7 mph 71% 0 in
23:39 65.1 °F 55.4 °F 30 in ESE 4.1 mph 10 mph 70.9% 0 in
23:44 65.1 °F 55.2 °F 30 in SE 4.3 mph 7 mph 70% 0 in
23:49 65.3 °F 55.2 °F 30 in ESE 3.8 mph 5 mph 70% 0 in
23:54 65.1 °F 55.4 °F 30 in ESE 2.9 mph 5.2 mph 70.8% 0 in
23:59 64.9 °F 55.4 °F 30 in ESE 3.2 mph 6.9 mph 71% 0 in
Murcia-Puente Tocinos, España
Compliments of Weather Underground - 2.75 mb

La estación de MeteoMurcia.com, publica sus datos en los siguientes proyectos:

Weather Underground PWS IMURCIAP2 Meteoclimatic www.awekas.at

W3Counter
Web Analytics